sensor_id;sensor_type;location;lat;lon;timestamp;P1;durP1;ratioP1;P2;durP2;ratioP2
3197;SDS011;1611;49.394;11.136;2023-02-15T00:00:16;26.70;;;15.80;;
3197;SDS011;1611;49.394;11.136;2023-02-15T00:02:43;44.45;;;16.30;;
3197;SDS011;1611;49.394;11.136;2023-02-15T00:05:10;27.38;;;14.85;;
3197;SDS011;1611;49.394;11.136;2023-02-15T00:07:36;37.30;;;16.75;;
3197;SDS011;1611;49.394;11.136;2023-02-15T00:10:04;30.17;;;16.52;;
3197;SDS011;1611;49.394;11.136;2023-02-15T00:12:33;27.35;;;15.48;;
3197;SDS011;1611;49.394;11.136;2023-02-15T00:14:59;28.33;;;15.18;;
3197;SDS011;1611;49.394;11.136;2023-02-15T00:17:26;29.23;;;14.88;;
3197;SDS011;1611;49.394;11.136;2023-02-15T00:19:53;26.10;;;14.65;;
3197;SDS011;1611;49.394;11.136;2023-02-15T00:22:20;33.80;;;15.40;;
3197;SDS011;1611;49.394;11.136;2023-02-15T00:24:47;29.48;;;16.30;;
3197;SDS011;1611;49.394;11.136;2023-02-15T00:27:15;26.55;;;15.57;;
3197;SDS011;1611;49.394;11.136;2023-02-15T00:29:43;27.98;;;15.27;;
3197;SDS011;1611;49.394;11.136;2023-02-15T00:32:09;24.83;;;16.00;;
3197;SDS011;1611;49.394;11.136;2023-02-15T00:34:36;28.90;;;16.58;;
3197;SDS011;1611;49.394;11.136;2023-02-15T00:37:03;23.25;;;14.35;;
3197;SDS011;1611;49.394;11.136;2023-02-15T00:39:29;27.23;;;15.50;;
3197;SDS011;1611;49.394;11.136;2023-02-15T00:41:56;26.27;;;15.65;;
3197;SDS011;1611;49.394;11.136;2023-02-15T00:44:23;28.55;;;16.00;;
3197;SDS011;1611;49.394;11.136;2023-02-15T00:46:51;26.23;;;15.45;;
3197;SDS011;1611;49.394;11.136;2023-02-15T00:49:18;29.52;;;15.15;;
3197;SDS011;1611;49.394;11.136;2023-02-15T00:51:45;29.10;;;16.13;;
3197;SDS011;1611;49.394;11.136;2023-02-15T00:54:12;25.73;;;16.02;;
3197;SDS011;1611;49.394;11.136;2023-02-15T00:56:38;38.55;;;15.38;;
3197;SDS011;1611;49.394;11.136;2023-02-15T00:59:05;27.90;;;16.80;;
3197;SDS011;1611;49.394;11.136;2023-02-15T01:01:32;26.58;;;16.60;;
3197;SDS011;1611;49.394;11.136;2023-02-15T01:04:00;24.55;;;14.77;;
3197;SDS011;1611;49.394;11.136;2023-02-15T01:06:27;26.30;;;15.48;;
3197;SDS011;1611;49.394;11.136;2023-02-15T01:08:54;36.40;;;17.63;;
3197;SDS011;1611;49.394;11.136;2023-02-15T01:11:21;35.08;;;17.83;;
3197;SDS011;1611;49.394;11.136;2023-02-15T01:13:48;28.00;;;15.77;;
3197;SDS011;1611;49.394;11.136;2023-02-15T01:16:16;26.50;;;15.38;;
3197;SDS011;1611;49.394;11.136;2023-02-15T01:18:44;28.20;;;16.50;;
3197;SDS011;1611;49.394;11.136;2023-02-15T01:21:13;29.10;;;17.05;;
3197;SDS011;1611;49.394;11.136;2023-02-15T01:23:41;28.25;;;16.55;;
3197;SDS011;1611;49.394;11.136;2023-02-15T01:26:08;29.13;;;15.60;;
3197;SDS011;1611;49.394;11.136;2023-02-15T01:28:36;32.22;;;17.05;;
3197;SDS011;1611;49.394;11.136;2023-02-15T01:31:06;27.88;;;15.60;;
3197;SDS011;1611;49.394;11.136;2023-02-15T01:33:34;29.85;;;16.70;;
3197;SDS011;1611;49.394;11.136;2023-02-15T01:36:01;28.05;;;16.30;;
3197;SDS011;1611;49.394;11.136;2023-02-15T01:38:30;27.67;;;14.60;;
3197;SDS011;1611;49.394;11.136;2023-02-15T01:40:57;34.78;;;17.35;;
3197;SDS011;1611;49.394;11.136;2023-02-15T01:43:45;26.92;;;15.05;;
3197;SDS011;1611;49.394;11.136;2023-02-15T01:46:14;29.98;;;16.15;;
3197;SDS011;1611;49.394;11.136;2023-02-15T01:48:44;27.05;;;15.50;;
3197;SDS011;1611;49.394;11.136;2023-02-15T01:51:13;27.42;;;15.23;;
3197;SDS011;1611;49.394;11.136;2023-02-15T01:53:44;27.08;;;15.10;;
3197;SDS011;1611;49.394;11.136;2023-02-15T01:56:15;34.08;;;17.65;;
3197;SDS011;1611;49.394;11.136;2023-02-15T01:58:44;25.27;;;14.40;;
3197;SDS011;1611;49.394;11.136;2023-02-15T02:01:13;28.95;;;16.42;;
3197;SDS011;1611;49.394;11.136;2023-02-15T02:03:42;32.50;;;16.98;;
3197;SDS011;1611;49.394;11.136;2023-02-15T02:06:16;28.23;;;16.02;;
3197;SDS011;1611;49.394;11.136;2023-02-15T02:08:44;32.88;;;16.27;;
3197;SDS011;1611;49.394;11.136;2023-02-15T02:11:12;29.92;;;16.17;;
3197;SDS011;1611;49.394;11.136;2023-02-15T02:13:39;30.10;;;16.05;;
3197;SDS011;1611;49.394;11.136;2023-02-15T02:16:08;27.70;;;15.75;;
3197;SDS011;1611;49.394;11.136;2023-02-15T02:18:41;32.28;;;17.02;;
3197;SDS011;1611;49.394;11.136;2023-02-15T02:24:52;29.85;;;16.17;;
3197;SDS011;1611;49.394;11.136;2023-02-15T02:27:36;30.27;;;16.52;;
3197;SDS011;1611;49.394;11.136;2023-02-15T02:30:26;34.45;;;16.52;;
3197;SDS011;1611;49.394;11.136;2023-02-15T02:33:28;32.42;;;15.55;;
3197;SDS011;1611;49.394;11.136;2023-02-15T02:36:07;31.17;;;17.90;;
3197;SDS011;1611;49.394;11.136;2023-02-15T02:38:44;31.35;;;17.13;;
3197;SDS011;1611;49.394;11.136;2023-02-15T02:41:20;33.90;;;17.40;;
3197;SDS011;1611;49.394;11.136;2023-02-15T02:43:57;30.92;;;16.00;;
3197;SDS011;1611;49.394;11.136;2023-02-15T02:46:31;26.60;;;15.25;;
3197;SDS011;1611;49.394;11.136;2023-02-15T02:49:04;32.20;;;16.48;;
3197;SDS011;1611;49.394;11.136;2023-02-15T02:51:31;28.27;;;15.68;;
3197;SDS011;1611;49.394;11.136;2023-02-15T02:53:59;28.73;;;15.73;;
3197;SDS011;1611;49.394;11.136;2023-02-15T02:56:29;25.63;;;14.85;;
3197;SDS011;1611;49.394;11.136;2023-02-15T02:59:00;28.48;;;15.98;;
3197;SDS011;1611;49.394;11.136;2023-02-15T03:01:31;31.38;;;16.10;;
3197;SDS011;1611;49.394;11.136;2023-02-15T03:04:05;26.17;;;14.80;;
3197;SDS011;1611;49.394;11.136;2023-02-15T03:06:36;27.33;;;14.95;;
3197;SDS011;1611;49.394;11.136;2023-02-15T03:09:07;28.02;;;16.05;;
3197;SDS011;1611;49.394;11.136;2023-02-15T03:11:39;27.80;;;14.75;;
3197;SDS011;1611;49.394;11.136;2023-02-15T03:14:07;25.02;;;14.45;;
3197;SDS011;1611;49.394;11.136;2023-02-15T03:16:34;28.92;;;16.20;;
3197;SDS011;1611;49.394;11.136;2023-02-15T03:19:03;29.42;;;14.05;;
3197;SDS011;1611;49.394;11.136;2023-02-15T03:21:35;26.08;;;14.40;;
3197;SDS011;1611;49.394;11.136;2023-02-15T03:24:08;22.33;;;12.98;;
3197;SDS011;1611;49.394;11.136;2023-02-15T03:26:39;23.02;;;13.02;;
3197;SDS011;1611;49.394;11.136;2023-02-15T03:29:09;22.48;;;13.57;;
3197;SDS011;1611;49.394;11.136;2023-02-15T03:31:38;25.35;;;13.90;;
3197;SDS011;1611;49.394;11.136;2023-02-15T03:34:10;24.70;;;14.02;;
3197;SDS011;1611;49.394;11.136;2023-02-15T03:36:40;22.17;;;13.88;;
3197;SDS011;1611;49.394;11.136;2023-02-15T03:39:12;21.13;;;13.23;;
3197;SDS011;1611;49.394;11.136;2023-02-15T03:41:45;19.10;;;11.95;;
3197;SDS011;1611;49.394;11.136;2023-02-15T03:44:18;19.00;;;12.10;;
3197;SDS011;1611;49.394;11.136;2023-02-15T03:46:51;19.50;;;11.48;;
3197;SDS011;1611;49.394;11.136;2023-02-15T03:49:24;21.20;;;12.05;;
3197;SDS011;1611;49.394;11.136;2023-02-15T03:51:55;20.13;;;11.88;;
3197;SDS011;1611;49.394;11.136;2023-02-15T03:54:25;19.63;;;12.40;;
3197;SDS011;1611;49.394;11.136;2023-02-15T03:57:09;21.90;;;11.60;;
3197;SDS011;1611;49.394;11.136;2023-02-15T03:59:56;19.60;;;12.65;;
3197;SDS011;1611;49.394;11.136;2023-02-15T04:02:43;19.40;;;11.50;;
3197;SDS011;1611;49.394;11.136;2023-02-15T04:05:19;23.00;;;13.27;;
3197;SDS011;1611;49.394;11.136;2023-02-15T04:07:46;21.83;;;12.48;;
3197;SDS011;1611;49.394;11.136;2023-02-15T04:10:13;22.23;;;13.10;;
3197;SDS011;1611;49.394;11.136;2023-02-15T04:12:57;22.80;;;13.25;;
3197;SDS011;1611;49.394;11.136;2023-02-15T04:15:24;20.33;;;12.55;;
3197;SDS011;1611;49.394;11.136;2023-02-15T04:18:08;25.42;;;14.50;;
3197;SDS011;1611;49.394;11.136;2023-02-15T04:20:36;20.50;;;12.13;;
3197;SDS011;1611;49.394;11.136;2023-02-15T04:23:20;21.55;;;12.68;;
3197;SDS011;1611;49.394;11.136;2023-02-15T04:26:05;25.05;;;14.50;;
3197;SDS011;1611;49.394;11.136;2023-02-15T04:28:32;18.48;;;12.15;;
3197;SDS011;1611;49.394;11.136;2023-02-15T04:30:58;23.92;;;13.57;;
3197;SDS011;1611;49.394;11.136;2023-02-15T04:33:25;24.60;;;13.90;;
3197;SDS011;1611;49.394;11.136;2023-02-15T04:35:53;24.77;;;14.80;;
3197;SDS011;1611;49.394;11.136;2023-02-15T04:38:21;20.83;;;14.63;;
3197;SDS011;1611;49.394;11.136;2023-02-15T04:40:49;23.00;;;14.10;;
3197;SDS011;1611;49.394;11.136;2023-02-15T04:43:16;26.10;;;14.40;;
3197;SDS011;1611;49.394;11.136;2023-02-15T04:45:47;27.70;;;14.73;;
3197;SDS011;1611;49.394;11.136;2023-02-15T04:48:15;23.58;;;14.20;;
3197;SDS011;1611;49.394;11.136;2023-02-15T04:50:42;22.83;;;13.55;;
3197;SDS011;1611;49.394;11.136;2023-02-15T04:53:10;23.65;;;13.55;;
3197;SDS011;1611;49.394;11.136;2023-02-15T04:55:37;27.05;;;15.63;;
3197;SDS011;1611;49.394;11.136;2023-02-15T04:58:04;28.05;;;14.27;;
3197;SDS011;1611;49.394;11.136;2023-02-15T05:00:31;24.20;;;14.65;;
3197;SDS011;1611;49.394;11.136;2023-02-15T05:02:57;25.25;;;14.98;;
3197;SDS011;1611;49.394;11.136;2023-02-15T05:05:24;25.42;;;15.35;;
3197;SDS011;1611;49.394;11.136;2023-02-15T05:07:51;26.63;;;14.63;;
3197;SDS011;1611;49.394;11.136;2023-02-15T05:10:19;24.80;;;14.75;;
3197;SDS011;1611;49.394;11.136;2023-02-15T05:12:46;25.13;;;15.90;;
3197;SDS011;1611;49.394;11.136;2023-02-15T05:15:13;27.92;;;14.52;;
3197;SDS011;1611;49.394;11.136;2023-02-15T05:17:40;28.20;;;15.55;;
3197;SDS011;1611;49.394;11.136;2023-02-15T05:20:07;29.55;;;16.30;;
3197;SDS011;1611;49.394;11.136;2023-02-15T05:22:34;23.40;;;14.80;;
3197;SDS011;1611;49.394;11.136;2023-02-15T05:25:01;23.75;;;14.32;;
3197;SDS011;1611;49.394;11.136;2023-02-15T05:27:58;25.90;;;14.48;;
3197;SDS011;1611;49.394;11.136;2023-02-15T05:30:42;28.77;;;15.27;;
3197;SDS011;1611;49.394;11.136;2023-02-15T05:33:09;27.27;;;16.20;;
3197;SDS011;1611;49.394;11.136;2023-02-15T05:35:35;27.92;;;16.35;;
3197;SDS011;1611;49.394;11.136;2023-02-15T05:38:02;24.67;;;14.75;;
3197;SDS011;1611;49.394;11.136;2023-02-15T05:40:29;28.05;;;15.48;;
3197;SDS011;1611;49.394;11.136;2023-02-15T05:42:57;28.15;;;15.65;;
3197;SDS011;1611;49.394;11.136;2023-02-15T05:45:24;25.73;;;15.30;;
3197;SDS011;1611;49.394;11.136;2023-02-15T05:47:51;26.83;;;13.90;;
3197;SDS011;1611;49.394;11.136;2023-02-15T05:50:17;29.25;;;16.95;;
3197;SDS011;1611;49.394;11.136;2023-02-15T05:52:44;27.85;;;16.33;;
3197;SDS011;1611;49.394;11.136;2023-02-15T05:55:11;30.25;;;15.93;;
3197;SDS011;1611;49.394;11.136;2023-02-15T05:57:38;38.88;;;27.73;;
3197;SDS011;1611;49.394;11.136;2023-02-15T06:00:07;29.73;;;17.20;;
3197;SDS011;1611;49.394;11.136;2023-02-15T06:02:35;26.40;;;16.75;;
3197;SDS011;1611;49.394;11.136;2023-02-15T06:05:02;28.42;;;16.33;;
3197;SDS011;1611;49.394;11.136;2023-02-15T06:07:30;26.38;;;15.15;;
3197;SDS011;1611;49.394;11.136;2023-02-15T06:09:57;26.15;;;15.30;;
3197;SDS011;1611;49.394;11.136;2023-02-15T06:12:24;27.73;;;16.02;;
3197;SDS011;1611;49.394;11.136;2023-02-15T06:14:50;30.23;;;17.05;;
3197;SDS011;1611;49.394;11.136;2023-02-15T06:17:18;27.00;;;15.20;;
3197;SDS011;1611;49.394;11.136;2023-02-15T06:19:46;29.33;;;15.55;;
3197;SDS011;1611;49.394;11.136;2023-02-15T06:22:13;28.20;;;15.82;;
3197;SDS011;1611;49.394;11.136;2023-02-15T06:24:40;28.02;;;15.82;;
3197;SDS011;1611;49.394;11.136;2023-02-15T06:27:07;29.77;;;15.00;;
3197;SDS011;1611;49.394;11.136;2023-02-15T06:29:34;26.65;;;16.95;;
3197;SDS011;1611;49.394;11.136;2023-02-15T06:32:01;27.00;;;15.10;;
3197;SDS011;1611;49.394;11.136;2023-02-15T06:34:29;26.73;;;14.65;;
3197;SDS011;1611;49.394;11.136;2023-02-15T06:36:56;26.60;;;16.08;;
3197;SDS011;1611;49.394;11.136;2023-02-15T06:39:23;29.35;;;16.42;;
3197;SDS011;1611;49.394;11.136;2023-02-15T06:41:50;29.83;;;15.70;;
3197;SDS011;1611;49.394;11.136;2023-02-15T06:44:17;30.00;;;16.02;;
3197;SDS011;1611;49.394;11.136;2023-02-15T06:46:43;31.08;;;14.80;;
3197;SDS011;1611;49.394;11.136;2023-02-15T06:49:10;30.25;;;15.70;;
3197;SDS011;1611;49.394;11.136;2023-02-15T06:51:38;31.15;;;15.52;;
3197;SDS011;1611;49.394;11.136;2023-02-15T06:54:05;28.80;;;15.95;;
3197;SDS011;1611;49.394;11.136;2023-02-15T06:56:32;28.70;;;15.50;;
3197;SDS011;1611;49.394;11.136;2023-02-15T06:58:59;26.20;;;15.23;;
3197;SDS011;1611;49.394;11.136;2023-02-15T07:01:25;29.92;;;16.38;;
3197;SDS011;1611;49.394;11.136;2023-02-15T07:03:52;24.90;;;14.10;;
3197;SDS011;1611;49.394;11.136;2023-02-15T07:06:19;28.58;;;15.55;;
3197;SDS011;1611;49.394;11.136;2023-02-15T07:08:47;42.83;;;29.80;;
3197;SDS011;1611;49.394;11.136;2023-02-15T07:11:14;33.33;;;19.67;;
3197;SDS011;1611;49.394;11.136;2023-02-15T07:13:58;31.90;;;17.83;;
3197;SDS011;1611;49.394;11.136;2023-02-15T07:16:25;37.33;;;19.60;;
3197;SDS011;1611;49.394;11.136;2023-02-15T07:18:52;36.40;;;18.05;;
3197;SDS011;1611;49.394;11.136;2023-02-15T07:21:19;31.35;;;18.05;;
3197;SDS011;1611;49.394;11.136;2023-02-15T07:23:45;39.20;;;21.13;;
3197;SDS011;1611;49.394;11.136;2023-02-15T07:26:13;40.50;;;23.15;;
3197;SDS011;1611;49.394;11.136;2023-02-15T07:28:40;37.00;;;23.65;;
3197;SDS011;1611;49.394;11.136;2023-02-15T07:31:07;34.35;;;20.05;;
3197;SDS011;1611;49.394;11.136;2023-02-15T07:33:34;38.83;;;19.45;;
3197;SDS011;1611;49.394;11.136;2023-02-15T07:36:01;33.33;;;17.20;;
3197;SDS011;1611;49.394;11.136;2023-02-15T07:38:29;34.75;;;17.27;;
3197;SDS011;1611;49.394;11.136;2023-02-15T07:40:59;36.63;;;18.77;;
3197;SDS011;1611;49.394;11.136;2023-02-15T07:43:26;32.47;;;18.00;;
3197;SDS011;1611;49.394;11.136;2023-02-15T07:45:53;29.58;;;15.52;;
3197;SDS011;1611;49.394;11.136;2023-02-15T07:48:20;30.40;;;15.80;;
3197;SDS011;1611;49.394;11.136;2023-02-15T07:50:47;31.83;;;15.38;;
3197;SDS011;1611;49.394;11.136;2023-02-15T07:53:14;28.83;;;14.63;;
3197;SDS011;1611;49.394;11.136;2023-02-15T07:55:40;34.72;;;17.05;;
3197;SDS011;1611;49.394;11.136;2023-02-15T07:58:08;27.70;;;14.98;;
3197;SDS011;1611;49.394;11.136;2023-02-15T08:00:35;26.67;;;14.95;;
3197;SDS011;1611;49.394;11.136;2023-02-15T08:03:22;30.42;;;15.70;;
3197;SDS011;1611;49.394;11.136;2023-02-15T08:05:54;27.73;;;15.27;;
3197;SDS011;1611;49.394;11.136;2023-02-15T08:08:22;27.50;;;15.18;;
3197;SDS011;1611;49.394;11.136;2023-02-15T08:10:58;28.60;;;15.27;;
3197;SDS011;1611;49.394;11.136;2023-02-15T08:13:44;31.33;;;16.65;;
3197;SDS011;1611;49.394;11.136;2023-02-15T08:16:24;26.23;;;13.55;;
3197;SDS011;1611;49.394;11.136;2023-02-15T08:18:52;29.00;;;14.35;;
3197;SDS011;1611;49.394;11.136;2023-02-15T08:21:19;29.83;;;14.95;;
3197;SDS011;1611;49.394;11.136;2023-02-15T08:23:47;27.58;;;15.52;;
3197;SDS011;1611;49.394;11.136;2023-02-15T08:26:14;35.17;;;16.77;;
3197;SDS011;1611;49.394;11.136;2023-02-15T08:28:41;30.30;;;15.10;;
3197;SDS011;1611;49.394;11.136;2023-02-15T08:31:11;27.48;;;14.90;;
3197;SDS011;1611;49.394;11.136;2023-02-15T08:33:39;27.95;;;15.35;;
3197;SDS011;1611;49.394;11.136;2023-02-15T08:36:08;29.75;;;15.88;;
3197;SDS011;1611;49.394;11.136;2023-02-15T08:38:36;28.23;;;15.02;;
3197;SDS011;1611;49.394;11.136;2023-02-15T08:41:10;30.02;;;15.60;;
3197;SDS011;1611;49.394;11.136;2023-02-15T08:43:38;27.85;;;14.82;;
3197;SDS011;1611;49.394;11.136;2023-02-15T08:46:05;26.02;;;13.80;;
3197;SDS011;1611;49.394;11.136;2023-02-15T08:48:34;28.73;;;15.25;;
3197;SDS011;1611;49.394;11.136;2023-02-15T08:51:05;27.83;;;14.68;;
3197;SDS011;1611;49.394;11.136;2023-02-15T08:53:35;26.23;;;14.27;;
3197;SDS011;1611;49.394;11.136;2023-02-15T08:56:02;25.70;;;13.50;;
3197;SDS011;1611;49.394;11.136;2023-02-15T08:58:29;26.75;;;14.02;;
3197;SDS011;1611;49.394;11.136;2023-02-15T09:00:56;25.52;;;12.50;;
3197;SDS011;1611;49.394;11.136;2023-02-15T09:03:23;28.63;;;14.30;;
3197;SDS011;1611;49.394;11.136;2023-02-15T09:05:53;28.20;;;14.63;;
3197;SDS011;1611;49.394;11.136;2023-02-15T09:08:23;26.52;;;13.32;;
3197;SDS011;1611;49.394;11.136;2023-02-15T09:10:50;23.00;;;13.82;;
3197;SDS011;1611;49.394;11.136;2023-02-15T09:13:17;25.33;;;13.57;;
3197;SDS011;1611;49.394;11.136;2023-02-15T09:15:44;28.65;;;15.50;;
3197;SDS011;1611;49.394;11.136;2023-02-15T09:18:11;27.52;;;13.95;;
3197;SDS011;1611;49.394;11.136;2023-02-15T09:20:42;24.35;;;14.25;;
3197;SDS011;1611;49.394;11.136;2023-02-15T09:23:10;25.25;;;14.30;;
3197;SDS011;1611;49.394;11.136;2023-02-15T09:25:37;25.58;;;13.95;;
3197;SDS011;1611;49.394;11.136;2023-02-15T09:28:04;24.23;;;13.52;;
3197;SDS011;1611;49.394;11.136;2023-02-15T09:30:30;26.52;;;13.38;;
3197;SDS011;1611;49.394;11.136;2023-02-15T09:32:57;25.40;;;14.10;;
3197;SDS011;1611;49.394;11.136;2023-02-15T09:35:24;23.80;;;13.48;;
3197;SDS011;1611;49.394;11.136;2023-02-15T09:37:51;23.23;;;13.20;;
3197;SDS011;1611;49.394;11.136;2023-02-15T09:40:19;22.83;;;12.40;;
3197;SDS011;1611;49.394;11.136;2023-02-15T09:42:52;24.77;;;16.00;;
3197;SDS011;1611;49.394;11.136;2023-02-15T09:45:38;23.60;;;12.73;;
3197;SDS011;1611;49.394;11.136;2023-02-15T09:48:21;26.65;;;14.52;;
3197;SDS011;1611;49.394;11.136;2023-02-15T09:51:02;25.45;;;13.85;;
3197;SDS011;1611;49.394;11.136;2023-02-15T09:53:43;18.08;;;11.93;;
3197;SDS011;1611;49.394;11.136;2023-02-15T09:56:24;19.77;;;11.82;;
3197;SDS011;1611;49.394;11.136;2023-02-15T09:59:03;25.60;;;13.95;;
3197;SDS011;1611;49.394;11.136;2023-02-15T10:01:35;39.83;;;20.33;;
3197;SDS011;1611;49.394;11.136;2023-02-15T10:04:17;22.92;;;13.57;;
3197;SDS011;1611;49.394;11.136;2023-02-15T10:07:00;23.90;;;13.02;;
3197;SDS011;1611;49.394;11.136;2023-02-15T10:09:40;22.42;;;13.35;;
3197;SDS011;1611;49.394;11.136;2023-02-15T10:12:22;24.63;;;13.85;;
3197;SDS011;1611;49.394;11.136;2023-02-15T10:15:06;27.85;;;13.05;;
3197;SDS011;1611;49.394;11.136;2023-02-15T10:17:50;20.45;;;12.05;;
3197;SDS011;1611;49.394;11.136;2023-02-15T10:20:27;21.63;;;12.40;;
3197;SDS011;1611;49.394;11.136;2023-02-15T10:23:08;23.25;;;13.50;;
3197;SDS011;1611;49.394;11.136;2023-02-15T10:25:49;29.55;;;16.05;;
3197;SDS011;1611;49.394;11.136;2023-02-15T10:28:23;21.23;;;12.48;;
3197;SDS011;1611;49.394;11.136;2023-02-15T10:30:55;20.63;;;12.00;;
3197;SDS011;1611;49.394;11.136;2023-02-15T10:33:34;21.02;;;11.98;;
3197;SDS011;1611;49.394;11.136;2023-02-15T10:36:08;22.05;;;13.15;;
3197;SDS011;1611;49.394;11.136;2023-02-15T10:38:46;22.88;;;13.77;;
3197;SDS011;1611;49.394;11.136;2023-02-15T10:41:21;20.48;;;13.13;;
3197;SDS011;1611;49.394;11.136;2023-02-15T10:44:02;21.92;;;13.85;;
3197;SDS011;1611;49.394;11.136;2023-02-15T10:49:29;21.83;;;17.13;;
3197;SDS011;1611;49.394;11.136;2023-02-15T10:52:10;20.58;;;14.10;;
3197;SDS011;1611;49.394;11.136;2023-02-15T10:54:48;24.08;;;14.75;;
3197;SDS011;1611;49.394;11.136;2023-02-15T10:57:25;18.75;;;12.27;;
3197;SDS011;1611;49.394;11.136;2023-02-15T11:00:09;21.02;;;12.73;;
3197;SDS011;1611;49.394;11.136;2023-02-15T11:02:45;18.17;;;11.90;;
3197;SDS011;1611;49.394;11.136;2023-02-15T11:05:26;24.15;;;12.40;;
3197;SDS011;1611;49.394;11.136;2023-02-15T11:08:06;23.70;;;12.35;;
3197;SDS011;1611;49.394;11.136;2023-02-15T11:10:36;17.77;;;11.52;;
3197;SDS011;1611;49.394;11.136;2023-02-15T11:13:08;15.82;;;11.30;;
3197;SDS011;1611;49.394;11.136;2023-02-15T11:15:40;25.27;;;13.50;;
3197;SDS011;1611;49.394;11.136;2023-02-15T11:18:11;17.50;;;11.48;;
3197;SDS011;1611;49.394;11.136;2023-02-15T11:20:42;20.63;;;12.50;;
3197;SDS011;1611;49.394;11.136;2023-02-15T11:23:15;18.52;;;12.63;;
3197;SDS011;1611;49.394;11.136;2023-02-15T11:25:44;20.50;;;12.10;;
3197;SDS011;1611;49.394;11.136;2023-02-15T11:28:16;22.80;;;15.15;;
3197;SDS011;1611;49.394;11.136;2023-02-15T11:30:49;18.48;;;12.80;;
3197;SDS011;1611;49.394;11.136;2023-02-15T11:33:20;21.15;;;13.40;;
3197;SDS011;1611;49.394;11.136;2023-02-15T11:35:52;21.05;;;14.10;;
3197;SDS011;1611;49.394;11.136;2023-02-15T11:38:23;18.60;;;12.48;;
3197;SDS011;1611;49.394;11.136;2023-02-15T11:40:54;22.27;;;12.27;;
3197;SDS011;1611;49.394;11.136;2023-02-15T11:46:46;19.90;;;12.90;;
3197;SDS011;1611;49.394;11.136;2023-02-15T11:49:19;24.92;;;12.13;;
3197;SDS011;1611;49.394;11.136;2023-02-15T11:51:48;21.38;;;13.27;;
3197;SDS011;1611;49.394;11.136;2023-02-15T11:54:16;20.30;;;13.52;;
3197;SDS011;1611;49.394;11.136;2023-02-15T11:56:44;24.80;;;14.75;;
3197;SDS011;1611;49.394;11.136;2023-02-15T11:59:11;25.27;;;14.52;;
3197;SDS011;1611;49.394;11.136;2023-02-15T12:01:46;23.20;;;14.82;;
3197;SDS011;1611;49.394;11.136;2023-02-15T12:04:14;26.08;;;15.88;;
3197;SDS011;1611;49.394;11.136;2023-02-15T12:06:46;27.98;;;15.40;;
3197;SDS011;1611;49.394;11.136;2023-02-15T12:09:21;25.48;;;16.48;;
3197;SDS011;1611;49.394;11.136;2023-02-15T12:11:54;27.42;;;15.52;;
3197;SDS011;1611;49.394;11.136;2023-02-15T12:14:47;25.30;;;15.25;;
3197;SDS011;1611;49.394;11.136;2023-02-15T12:17:15;28.38;;;16.67;;
3197;SDS011;1611;49.394;11.136;2023-02-15T12:19:42;25.52;;;16.00;;
3197;SDS011;1611;49.394;11.136;2023-02-15T12:22:18;24.63;;;15.65;;
3197;SDS011;1611;49.394;11.136;2023-02-15T12:24:48;30.95;;;15.88;;
3197;SDS011;1611;49.394;11.136;2023-02-15T12:27:17;25.20;;;15.95;;
3197;SDS011;1611;49.394;11.136;2023-02-15T12:29:48;26.58;;;15.80;;
3197;SDS011;1611;49.394;11.136;2023-02-15T12:32:18;27.48;;;17.60;;
3197;SDS011;1611;49.394;11.136;2023-02-15T12:34:50;26.75;;;17.15;;
3197;SDS011;1611;49.394;11.136;2023-02-15T12:37:19;26.92;;;16.63;;
3197;SDS011;1611;49.394;11.136;2023-02-15T12:39:51;25.98;;;17.60;;
3197;SDS011;1611;49.394;11.136;2023-02-15T12:42:20;32.00;;;19.33;;
3197;SDS011;1611;49.394;11.136;2023-02-15T12:44:57;30.70;;;18.63;;
3197;SDS011;1611;49.394;11.136;2023-02-15T12:47:26;34.45;;;19.17;;
3197;SDS011;1611;49.394;11.136;2023-02-15T12:50:10;27.03;;;17.20;;
3197;SDS011;1611;49.394;11.136;2023-02-15T12:52:43;26.23;;;17.87;;
3197;SDS011;1611;49.394;11.136;2023-02-15T12:55:18;33.22;;;19.15;;
3197;SDS011;1611;49.394;11.136;2023-02-15T12:57:47;29.93;;;20.90;;
3197;SDS011;1611;49.394;11.136;2023-02-15T13:00:27;32.40;;;22.60;;
3197;SDS011;1611;49.394;11.136;2023-02-15T13:02:57;30.33;;;19.47;;
3197;SDS011;1611;49.394;11.136;2023-02-15T13:05:26;28.57;;;17.77;;
3197;SDS011;1611;49.394;11.136;2023-02-15T13:07:58;28.03;;;18.13;;
3197;SDS011;1611;49.394;11.136;2023-02-15T13:10:27;28.50;;;19.27;;
3197;SDS011;1611;49.394;11.136;2023-02-15T13:12:55;34.33;;;19.60;;
3197;SDS011;1611;49.394;11.136;2023-02-15T13:15:26;27.93;;;18.63;;
3197;SDS011;1611;49.394;11.136;2023-02-15T13:17:57;29.50;;;18.57;;
3197;SDS011;1611;49.394;11.136;2023-02-15T13:20:25;25.60;;;18.07;;
3197;SDS011;1611;49.394;11.136;2023-02-15T13:22:53;24.90;;;16.53;;
3197;SDS011;1611;49.394;11.136;2023-02-15T13:25:25;27.33;;;19.53;;
3197;SDS011;1611;49.394;11.136;2023-02-15T13:27:56;31.10;;;21.80;;
3197;SDS011;1611;49.394;11.136;2023-02-15T13:30:28;32.17;;;23.00;;
3197;SDS011;1611;49.394;11.136;2023-02-15T13:33:01;29.23;;;19.90;;
3197;SDS011;1611;49.394;11.136;2023-02-15T13:35:37;30.80;;;21.43;;
3197;SDS011;1611;49.394;11.136;2023-02-15T13:38:34;32.73;;;22.77;;
3197;SDS011;1611;49.394;11.136;2023-02-15T13:41:20;31.63;;;20.90;;
3197;SDS011;1611;49.394;11.136;2023-02-15T13:43:54;29.87;;;19.77;;
3197;SDS011;1611;49.394;11.136;2023-02-15T13:46:45;28.80;;;20.43;;
3197;SDS011;1611;49.394;11.136;2023-02-15T13:49:27;32.30;;;21.50;;
3197;SDS011;1611;49.394;11.136;2023-02-15T13:52:08;32.37;;;21.47;;
3197;SDS011;1611;49.394;11.136;2023-02-15T14:00:56;33.73;;;22.83;;
3197;SDS011;1611;49.394;11.136;2023-02-15T14:06:45;31.87;;;21.90;;
3197;SDS011;1611;49.394;11.136;2023-02-15T14:09:22;32.20;;;21.40;;
3197;SDS011;1611;49.394;11.136;2023-02-15T14:12:04;34.00;;;22.37;;
3197;SDS011;1611;49.394;11.136;2023-02-15T14:14:58;32.57;;;22.00;;
3197;SDS011;1611;49.394;11.136;2023-02-15T14:17:39;32.83;;;20.37;;
3197;SDS011;1611;49.394;11.136;2023-02-15T14:20:17;36.63;;;23.43;;
3197;SDS011;1611;49.394;11.136;2023-02-15T14:22:48;38.90;;;21.30;;
3197;SDS011;1611;49.394;11.136;2023-02-15T14:25:24;39.83;;;25.00;;
3197;SDS011;1611;49.394;11.136;2023-02-15T14:27:59;42.17;;;23.03;;
3197;SDS011;1611;49.394;11.136;2023-02-15T14:30:33;43.43;;;25.17;;
3197;SDS011;1611;49.394;11.136;2023-02-15T14:33:04;45.20;;;25.53;;
3197;SDS011;1611;49.394;11.136;2023-02-15T14:35:35;46.00;;;26.67;;
3197;SDS011;1611;49.394;11.136;2023-02-15T14:38:04;38.73;;;23.27;;
3197;SDS011;1611;49.394;11.136;2023-02-15T14:40:39;38.17;;;23.47;;
3197;SDS011;1611;49.394;11.136;2023-02-15T14:43:34;41.50;;;25.33;;
3197;SDS011;1611;49.394;11.136;2023-02-15T14:46:15;37.90;;;23.40;;
3197;SDS011;1611;49.394;11.136;2023-02-15T14:48:48;38.93;;;24.27;;
3197;SDS011;1611;49.394;11.136;2023-02-15T14:57:27;41.03;;;23.07;;
3197;SDS011;1611;49.394;11.136;2023-02-15T14:59:57;37.95;;;24.13;;
3197;SDS011;1611;49.394;11.136;2023-02-15T15:02:29;41.25;;;24.75;;
3197;SDS011;1611;49.394;11.136;2023-02-15T15:05:09;43.85;;;24.83;;
3197;SDS011;1611;49.394;11.136;2023-02-15T15:07:45;41.13;;;23.10;;
3197;SDS011;1611;49.394;11.136;2023-02-15T15:10:33;46.50;;;25.58;;
3197;SDS011;1611;49.394;11.136;2023-02-15T15:18:54;41.15;;;24.48;;
3197;SDS011;1611;49.394;11.136;2023-02-15T15:36:17;51.70;;;27.15;;
3197;SDS011;1611;49.394;11.136;2023-02-15T15:39:12;46.53;;;25.70;;
3197;SDS011;1611;49.394;11.136;2023-02-15T15:41:57;57.55;;;33.90;;
3197;SDS011;1611;49.394;11.136;2023-02-15T15:47:44;95.93;;;54.03;;